Time;durP1;ratioP1;P1;durP2;ratioP2;P2;SDS_P1;SDS_P2;PMS_P1;PMS_P2;Temp;Humidity;BMP_temperature;BMP_pressure;BME280_temperature;BME280_humidity;BME280_pressure;Samples;Min_cycle;Max_cycle;Signal;HPM_P1;HPM_P2
2022/11/30 00:00:37;;;;;;;18.00;10.23;;;6.90;1.00;;;;;;5010717;28;20529;-62
2022/11/30 00:03:04;;;;;;;19.17;12.67;;;6.70;1.00;;;;;;5011381;28;20176;-62
2022/11/30 00:05:30;;;;;;;17.40;11.50;;;6.60;1.00;;;;;;5011435;28;20255;-63
2022/11/30 00:07:55;;;;;;;18.10;11.37;;;6.50;1.00;;;;;;5011352;28;20876;-62
2022/11/30 00:10:21;;;;;;;16.93;12.23;;;6.60;1.00;;;;;;5010310;28;20587;-63
2022/11/30 00:12:48;;;;;;;21.50;13.70;;;6.40;1.00;;;;;;5011143;28;20168;-65
2022/11/30 00:15:16;;;;;;;23.10;14.73;;;6.30;1.00;;;;;;5007605;28;20427;-65
2022/11/30 00:17:43;;;;;;;22.67;13.80;;;6.20;1.00;;;;;;5011154;28;20442;-65
2022/11/30 00:20:10;;;;;;;21.50;13.50;;;6.00;1.00;;;;;;5010757;28;20411;-64
2022/11/30 00:22:35;;;;;;;26.10;15.57;;;5.90;1.00;;;;;;5010664;28;20504;-64
2022/11/30 00:25:03;;;;;;;22.30;14.90;;;5.80;1.00;;;;;;5010348;28;21004;-63
2022/11/30 00:27:30;;;;;;;27.80;16.43;;;5.80;1.00;;;;;;5010879;28;20200;-66
2022/11/30 00:29:56;;;;;;;29.60;16.97;;;5.90;1.00;;;;;;5010957;28;20463;-66
2022/11/30 00:32:23;;;;;;;28.73;17.33;;;5.90;1.00;;;;;;5010056;28;20418;-63
2022/11/30 00:34:48;;;;;;;30.73;16.83;;;5.70;1.00;;;;;;5011072;28;20423;-65
2022/11/30 00:37:14;;;;;;;31.37;17.60;;;5.70;1.00;;;;;;5010904;28;20519;-65
2022/11/30 00:39:40;;;;;;;31.70;17.83;;;5.80;1.00;;;;;;5010141;28;20176;-65
2022/11/30 00:42:05;;;;;;;29.17;17.97;;;5.80;1.00;;;;;;5009731;28;20188;-63
2022/11/30 00:44:31;;;;;;;33.77;18.90;;;5.90;1.00;;;;;;5010446;28;20544;-63
2022/11/30 00:46:57;;;;;;;35.27;19.70;;;6.00;1.00;;;;;;5010002;28;20208;-63
2022/11/30 00:49:22;;;;;;;35.03;19.73;;;6.10;1.00;;;;;;5009832;28;20810;-64
2022/11/30 00:51:48;;;;;;;37.83;20.83;;;6.30;1.00;;;;;;5009793;28;20615;-65
2022/11/30 00:54:14;;;;;;;34.00;18.50;;;6.20;1.00;;;;;;5010108;28;20191;-65
2022/11/30 00:56:39;;;;;;;39.53;21.40;;;6.50;1.00;;;;;;5009428;28;20239;-65
2022/11/30 00:59:05;;;;;;;34.77;21.00;;;6.60;1.00;;;;;;5009289;28;20255;-65
2022/11/30 01:01:31;;;;;;;38.13;21.47;;;6.50;1.00;;;;;;5009616;28;20176;-65
2022/11/30 01:03:57;;;;;;;34.67;20.73;;;6.60;1.00;;;;;;5010250;28;20303;-63
2022/11/30 01:06:23;;;;;;;39.53;21.93;;;6.50;1.00;;;;;;5010371;28;20267;-63
2022/11/30 01:08:49;;;;;;;33.27;20.43;;;6.50;1.00;;;;;;5009273;28;20568;-63
2022/11/30 01:11:23;;;;;;;34.93;21.00;;;6.50;1.00;;;;;;5007174;28;20212;-65
2022/11/30 01:13:50;;;;;;;32.47;20.10;;;6.60;1.00;;;;;;5009768;28;20583;-65
2022/11/30 01:16:18;;;;;;;35.77;21.40;;;6.40;1.00;;;;;;5010194;28;20495;-65
2022/11/30 01:18:45;;;;;;;30.33;18.83;;;6.30;1.00;;;;;;5009964;28;20809;-65
2022/11/30 01:21:13;;;;;;;30.20;19.13;;;6.20;1.00;;;;;;5009581;28;20473;-65
2022/11/30 01:23:39;;;;;;;31.07;17.67;;;6.30;1.00;;;;;;5009652;28;20446;-65
2022/11/30 01:26:06;;;;;;;30.33;18.80;;;6.00;1.00;;;;;;5008890;28;20439;-65
2022/11/30 01:28:32;;;;;;;24.27;16.60;;;6.20;1.00;;;;;;5009590;28;20443;-65
2022/11/30 01:31:03;;;;;;;29.43;18.67;;;6.30;1.00;;;;;;5008958;28;20462;-65
2022/11/30 01:33:29;;;;;;;30.17;18.73;;;6.30;1.00;;;;;;5009651;28;20407;-65
2022/11/30 01:36:02;;;;;;;28.80;18.50;;;6.30;1.00;;;;;;5002946;28;20732;-65
2022/11/30 01:38:33;;;;;;;36.53;19.07;;;6.30;1.00;;;;;;5008826;28;20431;-65
2022/11/30 01:40:58;;;;;;;29.27;18.43;;;6.40;1.00;;;;;;5009285;28;20420;-65
2022/11/30 01:43:55;;;;;;;27.57;18.03;;;6.40;1.00;;;;;;5009695;28;20488;-65
2022/11/30 01:46:26;;;;;;;30.13;17.30;;;6.10;1.00;;;;;;5005028;28;20208;-65
2022/11/30 01:49:07;;;;;;;26.77;16.40;;;6.30;1.00;;;;;;5009796;28;20502;-65
2022/11/30 01:51:50;;;;;;;30.00;17.47;;;6.30;1.00;;;;;;5008842;28;20516;-65
2022/11/30 01:54:20;;;;;;;25.77;16.40;;;6.20;1.00;;;;;;5008870;28;20399;-65
2022/11/30 01:56:50;;;;;;;27.90;15.90;;;5.90;1.00;;;;;;5009979;28;20431;-65
2022/11/30 01:59:18;;;;;;;24.37;16.13;;;6.00;1.00;;;;;;5009489;28;20941;-65
2022/11/30 02:01:44;;;;;;;25.00;15.90;;;6.00;1.00;;;;;;5008680;28;20431;-65
2022/11/30 02:04:27;;;;;;;27.03;17.47;;;5.90;1.00;;;;;;5009589;28;20403;-64
2022/11/30 02:06:55;;;;;;;28.00;17.83;;;5.90;1.00;;;;;;5009674;28;20199;-65
2022/11/30 02:09:22;;;;;;;26.20;16.43;;;6.00;1.00;;;;;;5009219;28;20411;-64
2022/11/30 02:11:48;;;;;;;24.30;16.23;;;6.00;1.00;;;;;;5012362;28;20497;-65
2022/11/30 02:14:26;;;;;;;25.63;16.10;;;5.80;1.00;;;;;;5013280;28;20839;-64
2022/11/30 02:17:20;;;;;;;26.93;16.77;;;5.50;1.00;;;;;;5013325;28;20440;-63
2022/11/30 02:20:04;;;;;;;23.10;15.07;;;5.90;1.00;;;;;;5013242;28;20454;-65
2022/11/30 02:22:56;;;;;;;27.57;16.90;;;6.00;1.00;;;;;;5012492;28;20451;-65
2022/11/30 02:25:41;;;;;;;29.87;17.97;;;6.10;1.00;;;;;;5012822;28;20419;-65
2022/11/30 02:28:37;;;;;;;32.77;18.83;;;6.20;1.00;;;;;;5012853;28;20454;-65
2022/11/30 02:31:07;;;;;;;28.90;18.60;;;6.40;1.00;;;;;;5012182;28;20463;-65
2022/11/30 02:33:34;;;;;;;30.20;18.07;;;6.30;1.00;;;;;;5012731;28;20447;-65
2022/11/30 02:36:02;;;;;;;27.40;18.20;;;6.30;1.00;;;;;;5012834;28;20848;-65
2022/11/30 02:38:28;;;;;;;29.23;18.83;;;6.30;1.00;;;;;;5012460;28;20435;-65
2022/11/30 02:40:54;;;;;;;26.80;18.40;;;6.40;1.00;;;;;;5011721;28;20418;-65
2022/11/30 02:43:23;;;;;;;29.37;19.17;;;6.40;1.00;;;;;;5012471;28;20860;-64
2022/11/30 02:46:01;;;;;;;28.87;20.30;;;6.30;1.00;;;;;;5012544;28;20184;-65
2022/11/30 02:49:10;;;;;;;31.20;22.40;;;5.90;1.00;;;;;;5012675;28;20453;-65
2022/11/30 02:51:38;;;;;;;30.60;19.50;;;5.70;1.00;;;;;;4990023;28;20479;-65
2022/11/30 02:54:03;;;;;;;33.13;20.83;;;5.80;1.00;;;;;;4990577;28;20499;-65
2022/11/30 02:56:30;;;;;;;28.40;18.37;;;6.00;1.00;;;;;;4991158;28;20522;-65
2022/11/30 02:58:56;;;;;;;34.50;20.47;;;6.10;1.00;;;;;;4990896;28;20180;-65
2022/11/30 03:01:23;;;;;;;28.20;18.03;;;6.30;1.00;;;;;;4989686;28;20979;-65
2022/11/30 03:03:48;;;;;;;26.57;19.30;;;6.40;1.00;;;;;;4990382;28;20185;-65
2022/11/30 03:06:14;;;;;;;30.10;19.50;;;6.30;1.00;;;;;;4990158;28;20423;-65
2022/11/30 03:08:40;;;;;;;30.90;21.00;;;6.40;1.00;;;;;;4989713;28;20479;-65
2022/11/30 03:11:05;;;;;;;30.47;20.70;;;6.40;1.00;;;;;;4989319;28;20275;-64
2022/11/30 03:13:33;;;;;;;30.23;19.37;;;6.50;1.00;;;;;;4990087;28;20177;-63
2022/11/30 03:16:08;;;;;;;32.93;19.17;;;6.50;1.00;;;;;;4990349;28;20192;-63
2022/11/30 03:18:34;;;;;;;35.90;20.90;;;6.50;1.00;;;;;;4990144;28;20427;-64
2022/11/30 03:21:00;;;;;;;30.77;20.50;;;6.50;1.00;;;;;;4989416;28;20420;-64
2022/11/30 03:23:25;;;;;;;33.57;19.23;;;6.50;1.00;;;;;;5010722;28;21057;-64
2022/11/30 03:25:56;;;;;;;32.67;21.70;;;6.50;1.00;;;;;;5012597;28;20176;-64
2022/11/30 03:28:21;;;;;;;28.70;19.63;;;6.40;1.00;;;;;;5012116;28;20192;-63
2022/11/30 03:30:48;;;;;;;30.83;20.17;;;6.40;1.00;;;;;;5011358;28;20616;-63
2022/11/30 03:33:14;;;;;;;31.30;20.30;;;6.40;1.00;;;;;;5012177;28;20194;-63
2022/11/30 03:35:40;;;;;;;28.27;22.00;;;6.40;1.00;;;;;;5012128;28;20399;-63
2022/11/30 03:38:05;;;;;;;33.43;20.23;;;6.30;1.00;;;;;;5011689;28;20530;-63
2022/11/30 03:40:31;;;;;;;30.67;21.60;;;6.40;1.00;;;;;;5011138;28;20175;-63
2022/11/30 03:42:56;;;;;;;31.03;19.77;;;6.40;1.00;;;;;;5011172;28;20511;-64
2022/11/30 03:45:22;;;;;;;34.17;20.50;;;6.40;1.00;;;;;;5011689;28;20168;-63
2022/11/30 03:47:48;;;;;;;29.80;20.00;;;6.50;1.00;;;;;;5011284;28;20219;-63
2022/11/30 03:50:13;;;;;;;32.97;22.23;;;6.50;1.00;;;;;;5011099;28;20699;-63
2022/11/30 03:52:39;;;;;;;33.33;19.30;;;6.40;1.00;;;;;;5011673;28;20291;-63
2022/11/30 03:55:05;;;;;;;28.50;20.40;;;6.30;1.00;;;;;;5010935;28;20503;-63
2022/11/30 03:57:31;;;;;;;37.43;21.53;;;6.30;1.00;;;;;;5011685;28;20185;-63
2022/11/30 03:59:57;;;;;;;34.33;19.33;;;6.30;1.00;;;;;;5011473;28;21095;-63
2022/11/30 04:02:22;;;;;;;31.90;22.07;;;6.30;1.00;;;;;;5010933;28;20172;-64
2022/11/30 04:04:48;;;;;;;33.57;21.63;;;6.30;1.00;;;;;;5011190;28;20177;-64
2022/11/30 04:07:14;;;;;;;30.53;19.90;;;6.20;1.00;;;;;;5011707;28;20645;-64
2022/11/30 04:09:39;;;;;;;28.63;18.73;;;6.20;1.00;;;;;;5010767;28;20172;-64
2022/11/30 04:12:05;;;;;;;29.13;21.00;;;6.30;1.00;;;;;;5010411;28;20172;-63
2022/11/30 04:14:31;;;;;;;28.97;19.97;;;6.30;1.00;;;;;;5010980;28;20176;-64
2022/11/30 04:16:56;;;;;;;30.40;21.10;;;6.30;1.00;;;;;;5011394;28;20279;-64
2022/11/30 04:19:22;;;;;;;29.90;21.40;;;6.40;1.00;;;;;;5011082;28;20176;-63
2022/11/30 04:21:48;;;;;;;35.10;21.20;;;6.40;1.00;;;;;;5010257;28;20173;-63
2022/11/30 04:24:13;;;;;;;29.40;21.70;;;6.40;1.00;;;;;;5010137;28;20709;-63
2022/11/30 04:26:39;;;;;;;27.70;20.47;;;6.30;1.00;;;;;;5010751;28;20196;-64
2022/11/30 04:29:05;;;;;;;28.03;19.20;;;6.30;1.00;;;;;;5010706;28;20267;-63
2022/11/30 04:31:30;;;;;;;30.47;21.97;;;6.30;1.00;;;;;;5009805;28;20207;-63
2022/11/30 04:33:56;;;;;;;28.87;20.60;;;6.30;1.00;;;;;;5010542;28;20221;-64
2022/11/30 04:36:22;;;;;;;29.40;20.33;;;6.20;1.00;;;;;;5010866;28;20196;-64
2022/11/30 04:38:48;;;;;;;33.50;21.40;;;6.10;1.00;;;;;;5010332;28;20625;-64
2022/11/30 04:41:13;;;;;;;32.07;24.23;;;5.90;1.00;;;;;;5009717;28;20537;-64
2022/11/30 04:43:39;;;;;;;32.90;21.10;;;5.90;1.00;;;;;;5010440;28;20462;-64
2022/11/30 04:46:05;;;;;;;28.00;20.67;;;6.00;1.00;;;;;;5010701;28;20215;-63
2022/11/30 04:48:31;;;;;;;31.40;20.80;;;6.10;1.00;;;;;;5010351;28;20267;-64
2022/11/30 04:51:05;;;;;;;34.80;20.97;;;6.20;1.00;;;;;;5009525;28;20546;-64
2022/11/30 04:53:32;;;;;;;32.20;19.77;;;6.30;1.00;;;;;;5009747;28;20218;-64
2022/11/30 04:55:58;;;;;;;37.20;22.20;;;6.30;1.00;;;;;;5010379;28;20446;-64
2022/11/30 04:58:23;;;;;;;28.93;20.10;;;6.40;1.00;;;;;;5009903;28;20463;-64
2022/11/30 05:00:52;;;;;;;39.53;20.30;;;6.30;1.00;;;;;;5009551;28;20203;-64
2022/11/30 05:03:17;;;;;;;31.37;21.70;;;6.30;1.00;;;;;;5010083;28;20176;-65
2022/11/30 05:05:43;;;;;;;31.90;20.67;;;6.20;1.00;;;;;;5010370;28;20465;-63
2022/11/30 05:08:09;;;;;;;34.10;22.10;;;6.20;1.00;;;;;;5009649;28;20247;-64
2022/11/30 05:10:34;;;;;;;29.93;20.97;;;6.20;1.00;;;;;;5009394;28;20203;-64
2022/11/30 05:13:00;;;;;;;30.20;20.80;;;6.10;1.00;;;;;;5000308;28;20637;-63
2022/11/30 05:15:26;;;;;;;34.43;21.90;;;5.80;1.00;;;;;;5020339;28;20215;-64
2022/11/30 05:17:52;;;;;;;36.73;22.47;;;5.70;1.00;;;;;;5027047;28;20187;-63
2022/11/30 05:20:17;;;;;;;31.80;21.27;;;5.60;1.00;;;;;;5029082;28;20179;-63
2022/11/30 05:22:43;;;;;;;34.43;22.87;;;5.50;1.00;;;;;;5029447;28;20175;-63
2022/11/30 05:25:09;;;;;;;31.90;20.93;;;5.60;1.00;;;;;;5029263;28;20221;-63
2022/11/30 05:27:35;;;;;;;42.53;25.17;;;5.60;1.00;;;;;;5029544;28;20704;-63
2022/11/30 05:30:02;;;;;;;41.63;24.27;;;5.60;1.00;;;;;;5029443;28;20208;-64
2022/11/30 05:32:28;;;;;;;33.10;21.77;;;5.60;1.00;;;;;;5027804;28;20959;-64
2022/11/30 05:34:53;;;;;;;32.23;22.10;;;5.70;1.00;;;;;;5026748;28;20434;-63
2022/11/30 05:37:19;;;;;;;39.93;22.97;;;5.80;1.00;;;;;;5026606;28;20184;-63
2022/11/30 05:39:45;;;;;;;33.70;22.10;;;5.70;1.00;;;;;;5026934;28;20160;-63
2022/11/30 05:42:10;;;;;;;38.30;25.27;;;5.70;1.00;;;;;;5025780;28;20254;-65
2022/11/30 05:44:36;;;;;;;33.00;22.87;;;5.80;1.00;;;;;;5026079;28;20167;-65
2022/11/30 05:47:02;;;;;;;35.00;23.17;;;5.80;1.00;;;;;;5026747;28;20238;-65
2022/11/30 05:49:27;;;;;;;36.93;21.40;;;5.60;1.00;;;;;;5026906;28;20179;-63
2022/11/30 05:51:53;;;;;;;37.60;21.77;;;5.60;1.00;;;;;;5021587;28;20313;-63
2022/11/30 05:54:19;;;;;;;33.87;20.97;;;5.10;1.00;;;;;;5022486;28;20202;-60
2022/11/30 05:56:44;;;;;;;33.10;21.87;;;5.20;1.00;;;;;;5018020;28;20672;-60
2022/11/30 05:59:10;;;;;;;40.33;22.40;;;5.40;1.00;;;;;;5016897;28;20202;-63
2022/11/30 06:01:36;;;;;;;37.20;24.07;;;5.50;1.00;;;;;;5024336;28;20179;-64
2022/11/30 06:04:05;;;;;;;37.00;23.23;;;5.60;1.00;;;;;;5022569;28;20576;-64
2022/11/30 06:06:31;;;;;;;36.50;24.27;;;5.70;1.00;;;;;;5025062;28;20207;-64
2022/11/30 06:08:57;;;;;;;42.27;22.70;;;5.40;1.00;;;;;;5025489;28;20464;-64
2022/11/30 06:11:22;;;;;;;37.20;21.87;;;5.50;1.00;;;;;;5024603;28;20474;-64
2022/11/30 06:13:48;;;;;;;35.33;22.90;;;5.30;1.00;;;;;;5025227;28;20195;-64
2022/11/30 06:16:14;;;;;;;37.23;21.83;;;5.50;1.00;;;;;;5015825;28;20550;-64
2022/11/30 06:18:39;;;;;;;39.27;21.33;;;5.70;1.00;;;;;;5025057;28;20163;-66
2022/11/30 06:21:08;;;;;;;32.73;22.03;;;5.80;1.00;;;;;;5025369;28;20175;-65
2022/11/30 06:23:34;;;;;;;33.17;21.20;;;6.00;1.00;;;;;;5024039;28;20193;-65
2022/11/30 06:26:09;;;;;;;35.77;21.93;;;6.00;1.00;;;;;;5026291;28;20465;-64
2022/11/30 06:28:35;;;;;;;32.43;21.50;;;6.10;1.00;;;;;;5019772;28;20495;-64
2022/11/30 06:31:03;;;;;;;38.20;21.67;;;5.80;1.00;;;;;;5023285;28;20533;-66
2022/11/30 06:33:29;;;;;;;38.50;24.40;;;5.70;1.00;;;;;;5024523;28;20450;-64
2022/11/30 06:35:54;;;;;;;36.47;21.97;;;5.80;1.00;;;;;;5023785;28;20465;-64
2022/11/30 06:38:21;;;;;;;35.70;21.80;;;5.50;1.00;;;;;;5020771;28;20195;-65
2022/11/30 06:40:48;;;;;;;36.47;21.77;;;5.50;1.00;;;;;;5021644;28;20186;-65
2022/11/30 06:43:14;;;;;;;33.50;22.50;;;5.50;1.00;;;;;;5021529;28;20436;-65
2022/11/30 06:45:43;;;;;;;34.37;20.13;;;5.40;1.00;;;;;;5023048;28;20517;-66
2022/11/30 06:48:09;;;;;;;34.00;20.23;;;5.00;1.00;;;;;;5021979;28;20653;-66
2022/11/30 06:50:35;;;;;;;35.10;22.60;;;5.10;1.00;;;;;;5023965;28;20547;-64
2022/11/30 06:53:01;;;;;;;33.37;22.80;;;5.30;1.00;;;;;;5024581;28;20180;-66
2022/11/30 06:55:26;;;;;;;42.13;21.63;;;5.30;1.00;;;;;;5023909;28;20493;-65
2022/11/30 06:57:52;;;;;;;40.23;21.80;;;5.30;1.00;;;;;;5028078;28;20540;-66
2022/11/30 07:00:18;;;;;;;35.43;22.30;;;5.30;1.00;;;;;;5029439;28;20888;-66
2022/11/30 07:02:44;;;;;;;38.37;22.20;;;5.20;1.00;;;;;;5025842;28;20184;-65
2022/11/30 07:05:09;;;;;;;34.47;21.87;;;5.30;1.00;;;;;;5028389;28;20270;-66
2022/11/30 07:07:35;;;;;;;31.93;20.60;;;5.30;1.00;;;;;;5029353;28;20195;-65
2022/11/30 07:10:01;;;;;;;35.73;21.13;;;5.10;1.00;;;;;;5028623;28;20233;-66
2022/11/30 07:12:26;;;;;;;51.83;26.87;;;5.00;1.00;;;;;;5027565;28;20240;-66
2022/11/30 07:14:55;;;;;;;36.97;23.53;;;5.10;1.00;;;;;;5027947;28;20786;-66
2022/11/30 07:17:21;;;;;;;37.03;21.07;;;5.20;1.00;;;;;;5028300;28;20271;-67
2022/11/30 07:19:47;;;;;;;42.00;24.60;;;5.40;1.00;;;;;;5031407;28;20425;-69
2022/11/30 07:22:13;;;;;;;37.70;23.10;;;5.30;1.00;;;;;;5025946;28;20180;-67
2022/11/30 07:27:23;;;;;;;36.60;21.90;;;5.10;1.00;;;;;;5025035;28;20698;-66
2022/11/30 07:29:51;;;;;;;39.73;24.80;;;5.00;1.00;;;;;;5029949;28;20418;-65
2022/11/30 07:32:17;;;;;;;38.50;22.80;;;4.80;1.00;;;;;;5029107;28;20648;-65
2022/11/30 07:34:43;;;;;;;40.23;24.03;;;4.90;1.00;;;;;;5028400;28;21018;-66
2022/11/30 07:37:09;;;;;;;42.00;24.23;;;4.70;1.00;;;;;;5029714;28;20528;-65
2022/11/30 07:39:34;;;;;;;35.27;21.03;;;4.70;1.00;;;;;;5029715;28;20184;-66
2022/11/30 07:42:00;;;;;;;47.70;24.97;;;4.80;1.00;;;;;;5026957;28;20187;-65
2022/11/30 07:44:26;;;;;;;47.17;24.87;;;4.80;1.00;;;;;;5026883;28;20192;-65
2022/11/30 07:46:52;;;;;;;40.10;22.40;;;4.60;1.00;;;;;;5029660;28;20474;-65
2022/11/30 07:49:18;;;;;;;40.57;25.20;;;4.80;1.00;;;;;;5030579;28;20271;-64
2022/11/30 07:51:44;;;;;;;34.60;20.80;;;4.80;1.00;;;;;;5021437;28;20692;-64
2022/11/30 07:54:10;;;;;;;35.97;22.80;;;4.90;1.00;;;;;;5030039;28;20258;-64
2022/11/30 07:56:35;;;;;;;36.13;23.53;;;5.00;1.00;;;;;;5031008;28;20521;-64
2022/11/30 07:59:02;;;;;;;38.13;22.03;;;4.70;1.00;;;;;;5031310;28;20179;-63
2022/11/30 08:01:31;;;;;;;43.73;22.40;;;4.90;1.00;;;;;;5030176;28;20587;-64
2022/11/30 08:03:57;;;;;;;41.70;24.10;;;5.30;1.00;;;;;;5031178;28;20497;-64
2022/11/30 08:06:30;;;;;;;40.00;24.20;;;5.20;1.00;;;;;;5031049;28;20497;-64
2022/11/30 08:08:58;;;;;;;41.63;24.07;;;5.10;1.00;;;;;;5030354;28;20513;-63
2022/11/30 08:11:27;;;;;;;37.40;22.70;;;5.10;1.00;;;;;;5030395;28;20460;-64
2022/11/30 08:13:53;;;;;;;39.70;23.50;;;5.40;1.00;;;;;;5030832;28;20411;-64
2022/11/30 08:16:25;;;;;;;42.40;24.37;;;5.50;1.00;;;;;;5030766;28;20417;-64
2022/11/30 08:18:51;;;;;;;42.60;23.80;;;5.60;1.00;;;;;;5030998;28;20407;-65
2022/11/30 08:21:19;;;;;;;39.73;24.20;;;5.50;1.00;;;;;;5028792;28;20485;-65
2022/11/30 08:23:47;;;;;;;40.20;23.70;;;5.30;1.00;;;;;;5030645;28;20442;-65
2022/11/30 08:26:23;;;;;;;39.50;23.97;;;5.20;1.00;;;;;;5031149;28;20422;-65
2022/11/30 08:28:50;;;;;;;38.70;22.43;;;5.20;1.00;;;;;;5031076;28;20410;-65
2022/11/30 08:31:19;;;;;;;39.90;23.47;;;5.10;1.00;;;;;;5030285;28;20974;-65
2022/11/30 08:33:45;;;;;;;46.27;24.77;;;5.20;1.00;;;;;;5030888;28;20446;-65
2022/11/30 08:36:17;;;;;;;95.77;30.27;;;5.40;1.00;;;;;;5030741;28;20544;-65
2022/11/30 08:38:43;;;;;;;40.50;24.70;;;5.60;1.00;;;;;;5030430;28;20407;-65
2022/11/30 08:41:11;;;;;;;42.50;24.43;;;5.70;1.00;;;;;;5029972;28;20415;-65
2022/11/30 08:43:37;;;;;;;55.53;25.23;;;5.50;1.00;;;;;;5030451;28;20418;-65
2022/11/30 08:46:06;;;;;;;43.80;24.50;;;5.60;1.00;;;;;;5030669;28;20438;-65
2022/11/30 08:48:33;;;;;;;76.37;25.27;;;5.70;1.00;;;;;;5030219;28;20473;-65
2022/11/30 08:51:01;;;;;;;50.10;25.33;;;5.80;1.00;;;;;;5029293;28;20454;-65
2022/11/30 08:53:26;;;;;;;44.73;25.53;;;5.80;1.00;;;;;;5029708;28;20469;-64
2022/11/30 08:56:01;;;;;;;48.63;24.10;;;5.90;1.00;;;;;;5030602;28;20402;-64
2022/11/30 08:58:30;;;;;;;52.97;25.50;;;5.90;1.00;;;;;;5030130;28;20314;-64
2022/11/30 09:01:06;;;;;;;52.20;26.53;;;5.90;1.00;;;;;;5029501;28;21415;-64
2022/11/30 09:03:31;;;;;;;52.90;28.70;;;6.00;1.00;;;;;;5030174;28;20417;-66
2022/11/30 09:06:07;;;;;;;47.47;24.33;;;6.00;1.00;;;;;;5030799;28;20483;-65
2022/11/30 09:08:33;;;;;;;62.77;25.87;;;6.10;1.00;;;;;;5030680;28;20195;-65
2022/11/30 09:11:08;;;;;;;42.60;24.80;;;6.10;1.00;;;;;;5029858;28;20821;-65
2022/11/30 09:13:33;;;;;;;39.73;25.13;;;6.10;1.00;;;;;;5030041;28;20468;-65
2022/11/30 09:15:59;;;;;;;91.10;28.70;;;6.10;1.00;;;;;;5029740;28;20923;-65
2022/11/30 09:18:25;;;;;;;79.20;30.13;;;6.10;1.00;;;;;;5029646;28;20270;-65
2022/11/30 09:20:50;;;;;;;55.93;24.93;;;6.20;1.00;;;;;;5028506;28;20664;-65
2022/11/30 09:23:16;;;;;;;68.37;24.90;;;6.30;1.00;;;;;;5029540;28;20721;-65
2022/11/30 09:25:42;;;;;;;32.67;21.70;;;6.30;1.00;;;;;;5029813;28;20180;-65
2022/11/30 09:28:07;;;;;;;42.47;21.87;;;6.30;1.00;;;;;;5029309;28;20325;-65
2022/11/30 09:30:33;;;;;;;46.30;24.87;;;6.30;1.00;;;;;;5029169;28;20621;-65
2022/11/30 09:32:59;;;;;;;51.83;24.23;;;6.30;1.00;;;;;;5029837;28;20198;-65
2022/11/30 09:35:25;;;;;;;48.10;23.43;;;6.30;1.00;;;;;;5029713;28;20168;-64
2022/11/30 09:37:52;;;;;;;41.20;23.57;;;6.30;1.00;;;;;;5030106;28;20437;-65
2022/11/30 09:40:22;;;;;;;47.40;25.47;;;6.30;1.00;;;;;;5029166;28;20187;-65
2022/11/30 09:43:32;;;;;;;45.23;23.23;;;6.30;1.00;;;;;;5029756;28;20407;-65
2022/11/30 09:46:02;;;;;;;36.53;21.17;;;6.30;1.00;;;;;;5029591;28;20480;-65
2022/11/30 09:48:39;;;;;;;38.40;23.10;;;6.30;1.00;;;;;;5029238;28;20434;-65
2022/11/30 09:51:13;;;;;;;34.53;20.90;;;6.40;1.00;;;;;;5029073;28;20484;-65
2022/11/30 09:53:42;;;;;;;57.20;26.43;;;6.20;1.00;;;;;;5029382;28;20441;-64
2022/11/30 09:56:20;;;;;;;69.83;27.37;;;6.40;1.00;;;;;;5029763;28;20418;-64
2022/11/30 09:58:52;;;;;;;91.97;31.47;;;6.40;1.00;;;;;;5029285;28;20817;-64
2022/11/30 10:01:20;;;;;;;74.23;26.70;;;6.50;1.00;;;;;;5028958;28;20952;-64
2022/11/30 10:03:46;;;;;;;33.47;20.30;;;6.50;1.00;;;;;;5029325;28;20498;-65
2022/11/30 10:06:24;;;;;;;52.33;23.23;;;6.60;1.00;;;;;;5029640;28;20476;-63
2022/11/30 10:08:55;;;;;;;39.93;22.80;;;6.60;1.00;;;;;;5032528;28;20911;-65
2022/11/30 10:11:40;;;;;;;54.40;26.20;;;6.50;1.00;;;;;;5032050;28;21067;-65
2022/11/30 10:14:15;;;;;;;39.30;21.97;;;6.50;1.00;;;;;;5032436;28;20789;-64
2022/11/30 10:16:56;;;;;;;32.80;21.20;;;6.60;1.00;;;;;;5032613;28;20540;-64
2022/11/30 10:20:10;;;;;;;29.77;20.10;;;6.50;1.00;;;;;;5033099;28;20410;-63
2022/11/30 10:23:02;;;;;;;31.07;19.43;;;6.50;1.00;;;;;;4968318;28;20938;-63
2022/11/30 10:25:55;;;;;;;34.87;20.13;;;6.30;1.00;;;;;;5012880;28;20475;-63
2022/11/30 10:28:24;;;;;;;41.80;22.03;;;6.20;1.00;;;;;;5029710;28;20433;-63
2022/11/30 10:30:50;;;;;;;32.13;19.97;;;6.20;1.00;;;;;;5029087;28;20761;-63
2022/11/30 10:33:18;;;;;;;34.70;22.00;;;6.30;1.00;;;;;;5032858;28;20402;-63
2022/11/30 10:35:47;;;;;;;60.13;24.47;;;6.20;1.00;;;;;;5033028;28;20250;-65
2022/11/30 10:38:41;;;;;;;35.70;22.17;;;6.30;1.00;;;;;;5032285;28;20426;-63
2022/11/30 10:41:21;;;;;;;27.67;21.10;;;6.30;1.00;;;;;;5028885;28;20483;-64
2022/11/30 10:44:08;;;;;;;30.43;19.03;;;5.60;1.00;;;;;;5032494;28;20508;-65
2022/11/30 10:46:37;;;;;;;32.03;19.50;;;5.60;1.00;;;;;;5032745;28;20815;-64
2022/11/30 10:49:11;;;;;;;34.37;19.57;;;5.60;1.00;;;;;;5032323;28;20902;-65
2022/11/30 10:51:41;;;;;;;29.73;18.27;;;5.80;1.00;;;;;;5031523;28;20452;-65
2022/11/30 10:54:16;;;;;;;33.83;19.90;;;5.90;1.00;;;;;;5031742;28;20411;-65
2022/11/30 10:56:42;;;;;;;31.67;18.53;;;6.00;1.00;;;;;;5032670;28;20434;-65
2022/11/30 10:59:16;;;;;;;28.17;19.07;;;6.10;1.00;;;;;;5032361;28;20552;-65
2022/11/30 11:01:42;;;;;;;29.53;18.57;;;6.20;1.00;;;;;;5031369;28;20199;-65
2022/11/30 11:04:11;;;;;;;30.63;20.60;;;6.10;1.00;;;;;;5032024;28;20410;-65
2022/11/30 11:06:57;;;;;;;28.60;17.90;;;6.10;1.00;;;;;;5032471;28;20445;-64
2022/11/30 11:09:26;;;;;;;30.13;17.33;;;6.20;1.00;;;;;;5031777;28;20489;-63
2022/11/30 11:12:04;;;;;;;36.93;20.97;;;6.00;1.00;;;;;;5031094;28;20477;-65
2022/11/30 11:14:31;;;;;;;35.37;18.60;;;6.00;1.00;;;;;;5032591;28;20402;-65
2022/11/30 11:16:59;;;;;;;31.90;20.30;;;6.10;1.00;;;;;;5031512;28;20425;-65
2022/11/30 11:19:40;;;;;;;33.80;18.97;;;6.10;1.00;;;;;;5032035;28;20407;-65
2022/11/30 11:22:28;;;;;;;32.17;21.80;;;6.10;1.00;;;;;;5031206;28;20577;-64
2022/11/30 11:25:22;;;;;;;41.63;23.23;;;5.90;1.00;;;;;;5031486;28;20955;-65
2022/11/30 11:28:03;;;;;;;32.20;20.00;;;5.80;1.00;;;;;;5031387;28;20438;-65
2022/11/30 11:30:31;;;;;;;31.70;18.23;;;5.70;1.00;;;;;;5030922;28;20462;-66
2022/11/30 11:33:21;;;;;;;42.77;19.97;;;5.50;1.00;;;;;;5031627;28;20413;-65
2022/11/30 11:36:11;;;;;;;45.17;20.60;;;5.60;1.00;;;;;;5031661;28;20426;-65
2022/11/30 11:38:43;;;;;;;29.33;19.50;;;5.70;1.00;;;;;;5030950;28;20406;-65
2022/11/30 11:41:11;;;;;;;27.00;16.50;;;5.80;1.00;;;;;;5030940;28;20534;-64
2022/11/30 11:43:54;;;;;;;36.20;17.40;;;5.80;1.00;;;;;;5030140;28;20449;-64
2022/11/30 11:46:21;;;;;;;30.83;14.90;;;5.80;1.00;;;;;;5031166;28;20426;-65
2022/11/30 11:49:16;;;;;;;32.63;18.00;;;5.70;1.00;;;;;;5031261;28;20483;-62
2022/11/30 11:51:41;;;;;;;36.17;18.93;;;5.80;1.00;;;;;;5030573;28;20819;-65
2022/11/30 11:54:33;;;;;;;31.37;17.93;;;5.90;1.00;;;;;;5030630;28;20406;-64
2022/11/30 11:56:59;;;;;;;29.53;18.27;;;6.00;1.00;;;;;;5031492;28;20676;-63
2022/11/30 11:59:47;;;;;;;27.90;17.87;;;5.80;1.00;;;;;;5030851;28;20531;-65
2022/11/30 12:02:21;;;;;;;30.00;16.90;;;5.80;1.00;;;;;;5030356;28;20422;-64
2022/11/30 12:05:06;;;;;;;33.90;19.20;;;5.90;1.00;;;;;;5030768;28;20455;-64
2022/11/30 12:07:43;;;;;;;24.60;14.97;;;5.90;1.00;;;;;;5031253;28;20426;-65
2022/11/30 12:10:27;;;;;;;30.60;15.97;;;5.80;1.00;;;;;;5030636;28;20461;-65
2022/11/30 12:12:54;;;;;;;33.30;18.73;;;5.70;1.00;;;;;;5031445;28;20468;-63
2022/11/30 12:15:31;;;;;;;31.33;17.07;;;5.90;1.00;;;;;;5031602;28;20395;-63
2022/11/30 12:18:05;;;;;;;27.80;15.60;;;5.90;1.00;;;;;;5030933;28;20747;-63
2022/11/30 12:20:36;;;;;;;30.03;16.43;;;6.00;1.00;;;;;;5030257;28;20420;-64
2022/11/30 12:23:11;;;;;;;26.90;14.43;;;6.00;1.00;;;;;;5031107;28;20454;-64
2022/11/30 12:25:46;;;;;;;28.90;16.13;;;5.90;1.00;;;;;;5030617;28;20516;-64
2022/11/30 12:28:25;;;;;;;29.63;17.73;;;6.00;1.00;;;;;;5030826;28;20441;-63
2022/11/30 12:31:16;;;;;;;29.63;17.30;;;6.00;1.00;;;;;;5029932;28;20453;-64
2022/11/30 12:33:45;;;;;;;29.90;16.40;;;5.80;1.00;;;;;;5027159;28;20485;-64
2022/11/30 12:36:39;;;;;;;22.60;11.00;;;5.90;1.00;;;;;;5022778;28;20430;-64
2022/11/30 12:39:21;;;;;;;26.17;14.80;;;7.40;1.00;;;;;;5028829;28;20841;-64
2022/11/30 12:41:53;;;;;;;34.30;15.87;;;8.40;1.00;;;;;;5026493;28;20484;-64
2022/11/30 12:44:45;;;;;;;26.10;14.93;;;7.30;99.90;;;;;;5027561;28;20437;-67
2022/11/30 12:47:42;;;;;;;29.20;16.87;;;6.50;75.90;;;;;;5030554;28;20446;-65
2022/11/30 12:50:26;;;;;;;23.30;14.17;;;6.20;1.00;;;;;;5028326;28;20533;-63
2022/11/30 12:53:10;;;;;;;21.53;15.07;;;5.90;1.00;;;;;;5019379;28;20861;-65
2022/11/30 12:55:54;;;;;;;23.97;13.60;;;5.80;1.00;;;;;;5030026;28;20440;-65
2022/11/30 12:58:26;;;;;;;27.97;15.30;;;5.80;1.00;;;;;;5029905;28;20935;-65
2022/11/30 13:01:29;;;;;;;28.77;16.00;;;5.90;1.00;;;;;;5021800;28;20944;-64
2022/11/30 13:04:14;;;;;;;24.00;14.50;;;6.00;1.00;;;;;;5021199;28;20433;-65
2022/11/30 13:07:10;;;;;;;20.77;12.83;;;6.20;1.00;;;;;;5026749;28;20579;-65